Time;durP1;ratioP1;P1;durP2;ratioP2;P2;SDS_P1;SDS_P2;PMS_P1;PMS_P2;Temp;Humidity;BMP_temperature;BMP_pressure;BME280_temperature;BME280_humidity;BME280_pressure;Samples;Min_cycle;Max_cycle;Signal;HPM_P1;HPM_P2
2023/11/09 00:00:44;;;;;;;;;53.67;43.00;;;;;4.88;100.00;99881.94;6314627;20;2865961;-52
2023/11/09 00:03:14;;;;;;;;;48.67;40.33;;;;;4.60;100.00;99877.56;6311754;20;2878561;-44
2023/11/09 00:05:43;;;;;;;;;52.50;42.00;;;;;4.75;100.00;99867.31;6313117;20;2865903;-47
2023/11/09 00:08:12;;;;;;;;;44.50;39.00;;;;;4.74;100.00;99868.22;6284488;20;2866347;-52
2023/11/09 00:10:41;;;;;;;;;44.67;41.00;;;;;4.40;100.00;99864.94;6285290;20;3610676;-43
2023/11/09 00:13:10;;;;;;;;;47.33;38.33;;;;;4.27;100.00;99874.25;6283644;20;2866021;-51
2023/11/09 00:15:40;;;;;;;;;48.67;39.00;;;;;4.48;100.00;99871.81;6314154;20;3629471;-53
2023/11/09 00:18:10;;;;;;;;;40.67;36.33;;;;;4.48;100.00;99869.16;6312220;20;2852403;-39
2023/11/09 00:20:39;;;;;;;;;49.67;40.00;;;;;4.29;100.00;99866.19;6314820;20;3620075;-38
2023/11/09 00:23:09;;;;;;;;;46.67;39.00;;;;;3.95;100.00;99873.50;6313660;20;2875413;-38
2023/11/09 00:25:39;;;;;;;;;52.00;41.00;;;;;4.08;100.00;99870.44;6316069;20;2864986;-38
2023/11/09 00:28:08;;;;;;;;;52.00;39.00;;;;;4.07;100.00;99872.22;6312222;20;3629480;-38
2023/11/09 00:30:38;;;;;;;;;52.00;40.33;;;;;3.91;100.00;99870.97;6313102;20;3615969;-39
2023/11/09 00:33:08;;;;;;;;;52.00;40.33;;;;;3.89;100.00;99868.34;6313509;20;3620097;-38
2023/11/09 00:35:39;;;;;;;;;48.67;38.33;;;;;3.64;100.00;99862.94;6310728;20;3627391;-43
2023/11/09 00:38:14;;;;;;;;;42.33;37.67;;;;;3.43;100.00;99869.78;6314261;20;3594036;-43
2023/11/09 00:40:43;;;;;;;;;43.50;38.50;;;;;3.44;100.00;99865.31;6279536;20;2864885;-43
2023/11/09 00:43:13;;;;;;;;;58.00;40.00;;;;;3.45;100.00;99869.72;6281999;20;3638794;-44
2023/11/09 00:45:42;;;;;;;;;45.00;40.67;;;;;3.74;100.00;99867.06;6316879;20;3587758;-51
2023/11/09 00:48:10;;;;;;;;;40.50;34.00;;;;;3.51;100.00;99870.41;6278165;20;2838791;-38
2023/11/09 00:50:40;;;;;;;;;46.50;40.00;;;;;3.48;100.00;99864.34;6281272;20;2864949;-39
2023/11/09 00:53:09;;;;;;;;;49.00;43.33;;;;;3.32;100.00;99865.66;6283106;20;3615955;-38
2023/11/09 00:55:39;;;;;;;;;41.67;35.00;;;;;3.48;100.00;99867.00;6314882;20;2866088;-53
2023/11/09 00:58:09;;;;;;;;;44.00;39.67;;;;;3.12;100.00;99856.50;6311587;20;2868241;-50
2023/11/09 01:00:38;;;;;;;;;41.50;38.00;;;;;3.49;100.00;99852.78;6311668;20;2855540;-52
2023/11/09 01:03:07;;;;;;;;;47.50;40.00;;;;;3.08;100.00;99852.19;6282988;20;2864862;-48
2023/11/09 01:05:36;;;;;;;;;45.50;39.50;;;;;3.57;100.00;99845.47;6280613;20;2867063;-48
2023/11/09 01:08:06;;;;;;;;;56.67;42.67;;;;;3.87;100.00;99846.31;6283311;20;3629512;-38
2023/11/09 01:10:35;;;;;;;;;45.00;40.00;;;;;4.20;100.00;99850.56;6311178;20;2855623;-39
2023/11/09 01:13:04;;;;;;;;;50.00;40.50;;;;;3.90;100.00;99842.69;6283282;20;2861742;-44
2023/11/09 01:15:34;;;;;;;;;53.33;42.00;;;;;3.79;100.00;99839.47;6280473;20;3624186;-44
2023/11/09 01:18:08;;;;;;;;;50.33;40.67;;;;;3.67;100.00;99841.59;6311931;20;2852361;-42
2023/11/09 01:20:37;;;;;;;;;37.00;37.00;;;;;3.89;100.00;99841.78;6311281;20;2841914;-42
2023/11/09 01:23:09;;;;;;;;;47.00;40.00;;;;;3.73;100.00;99844.06;6280466;20;2867128;-44
2023/11/09 01:25:39;;;;;;;;;46.67;38.00;;;;;4.06;100.00;99843.94;6310251;20;2868462;-41
2023/11/09 01:28:08;;;;;;;;;39.50;37.00;;;;;3.79;100.00;99847.44;6312282;20;2853466;-50
2023/11/09 01:30:37;;;;;;;;;48.00;38.50;;;;;3.64;100.00;99846.16;6280667;20;2876321;-39
2023/11/09 01:33:07;;;;;;;;;57.00;40.00;;;;;3.66;100.00;99849.59;6280600;20;3598306;-40
2023/11/09 01:35:36;;;;;;;;;57.00;47.50;;;;;3.59;100.00;99848.94;6311543;20;2847554;-38
2023/11/09 01:38:05;;;;;;;;;55.67;40.00;;;;;3.62;100.00;99847.97;6277168;20;3621070;-38
2023/11/09 01:40:37;;;;;;;;;51.33;39.00;;;;;3.59;100.00;99837.47;6310784;20;2872326;-49
2023/11/09 01:43:14;;;;;;;;;58.00;43.67;;;;;3.30;100.00;99848.03;6307730;20;3602523;-37
2023/11/09 01:45:45;;;;;;;;;48.00;40.00;;;;;3.50;100.00;99838.59;6309641;20;3609671;-39
2023/11/09 01:48:15;;;;;;;;;45.00;40.00;;;;;3.42;100.00;99851.22;6311726;20;2860847;-38
2023/11/09 01:50:45;;;;;;;;;41.00;39.50;;;;;3.08;100.00;99854.84;6311359;20;2848338;-40
2023/11/09 01:53:15;;;;;;;;;50.67;39.00;;;;;2.97;100.00;99846.34;6278588;20;2871134;-40
2023/11/09 01:55:44;;;;;;;;;47.50;38.00;;;;;2.78;100.00;99848.63;6309600;20;2855536;-39
2023/11/09 01:58:15;;;;;;;;;50.33;41.67;;;;;3.07;100.00;99851.34;6276109;20;2877486;-37
2023/11/09 02:00:46;;;;;;;;;41.50;38.00;;;;;3.03;100.00;99846.19;6310063;20;2854469;-45
2023/11/09 02:03:16;;;;;;;;;57.67;44.33;;;;;3.18;100.00;99852.81;6281296;20;2870047;-48
2023/11/09 02:05:47;;;;;;;;;60.50;45.50;;;;;3.36;100.00;99852.28;6310285;20;2848209;-50
2023/11/09 02:08:18;;;;;;;;;56.00;45.50;;;;;3.41;100.00;99850.34;6279570;20;2851314;-49
2023/11/09 02:10:47;;;;;;;;;54.67;42.33;;;;;3.46;100.00;99845.78;6280533;20;3629577;-38
2023/11/09 02:13:17;;;;;;;;;56.00;42.33;;;;;3.05;100.00;99844.31;6316898;20;2871143;-39
2023/11/09 02:15:46;;;;;;;;;41.00;36.50;;;;;3.19;100.00;99851.91;6316098;20;2838858;-38
2023/11/09 02:18:16;;;;;;;;;52.00;40.00;;;;;3.45;100.00;99867.06;6284804;20;3624213;-38
2023/11/09 02:20:47;;;;;;;;;48.00;37.00;;;;;3.33;100.00;99852.38;6316482;20;3637839;-37
2023/11/09 02:23:20;;;;;;;;;45.67;32.67;;;;;3.13;100.00;99854.72;6315442;20;3633666;-49
2023/11/09 02:25:50;;;;;;;;;68.00;49.67;;;;;3.25;100.00;99857.91;6312352;20;2867259;-48
2023/11/09 02:28:20;;;;;;;;;62.00;47.00;;;;;3.08;100.00;99857.50;6316778;20;2865970;-48
2023/11/09 02:30:50;;;;;;;;;55.00;45.33;;;;;3.25;100.00;99857.91;6281380;20;2864973;-48
2023/11/09 02:33:19;;;;;;;;;44.50;38.50;;;;;2.92;100.00;99850.88;6316877;20;2854494;-47
2023/11/09 02:35:49;;;;;;;;;34.00;29.50;;;;;3.09;100.00;99851.31;6282217;20;2852420;-48
2023/11/09 02:38:18;;;;;;;;;32.50;32.50;;;;;3.16;100.00;99850.22;6282925;20;2852405;-47
2023/11/09 02:40:46;;;;;;;;;35.50;31.50;;;;;3.19;100.00;99847.47;6280407;20;2500241;-47
2023/11/09 02:43:15;;;;;;;;;42.00;33.00;;;;;2.82;100.00;99847.66;6284976;20;2871301;-48
2023/11/09 02:45:45;;;;;;;;;28.00;23.50;;;;;2.58;100.00;99854.44;6315982;20;2837770;-48
2023/11/09 02:48:13;;;;;;;;;32.00;30.50;;;;;3.23;100.00;99864.16;6286782;20;2675310;-47
2023/11/09 02:50:42;;;;;;;;;40.67;32.67;;;;;3.06;100.00;99854.06;6281336;20;2879487;-48
2023/11/09 02:53:11;;;;;;;;;33.50;29.50;;;;;3.68;100.00;99861.91;6314077;20;2843020;-48
2023/11/09 02:55:40;;;;;;;;;29.50;28.00;;;;;3.88;100.00;99855.13;6283758;20;2845239;-48
2023/11/09 02:58:09;;;;;;;;;29.00;29.00;;;;;3.48;100.00;99851.06;6283026;20;2841015;-43
2023/11/09 03:00:37;;;;;;;;;35.50;32.00;;;;;2.88;100.00;99849.25;6283014;20;2847173;-45
2023/11/09 03:03:06;;;;;;;;;28.50;26.00;;;;;2.78;100.00;99859.22;6284516;20;2845068;-43
2023/11/09 03:05:34;;;;;;;;;36.00;31.50;;;;;3.19;100.00;99852.78;6281902;20;2500347;-43
2023/11/09 03:08:02;;;;;;;;;41.00;25.00;;;;;3.66;100.00;99850.50;6278476;20;2500272;-41
2023/11/09 03:10:30;;;;;;;;;29.00;27.50;;;;;3.81;100.00;99854.44;6277823;20;2500429;-43
2023/11/09 03:13:02;;;;;;;;;36.00;25.00;;;;;3.56;100.00;99853.50;6279927;20;2871136;-42
2023/11/09 03:15:31;;;;;;;;;26.50;24.00;;;;;3.87;100.00;99858.69;6279786;20;2849232;-51
2023/11/09 03:17:59;;;;;;;;;23.00;21.00;;;;;4.04;100.00;99845.75;6274890;20;2498312;-45
2023/11/09 03:20:27;;;;;;;;;25.00;24.00;;;;;4.13;100.00;99848.13;6277864;20;2836830;-48
2023/11/09 03:22:56;;;;;;;;;22.33;22.33;;;;;4.12;100.00;99841.06;6276071;20;3579541;-46
2023/11/09 03:25:24;;;;;;;;;26.00;24.50;;;;;4.35;100.00;99839.44;6279139;20;2845188;-47
2023/11/09 03:27:52;;;;;;;;;25.00;22.00;;;;;4.34;100.00;99835.03;6280263;20;2500279;-51
2023/11/09 03:30:21;;;;;;;;;21.67;19.67;;;;;4.17;100.00;99841.78;6283984;20;3554439;-51
2023/11/09 03:32:48;;;;;;;;;28.00;22.00;;;;;4.20;100.00;99834.63;6279378;20;2498325;-49
2023/11/09 03:35:18;;;;;;;;;23.00;23.00;;;;;4.05;100.00;99839.50;6280820;20;2500377;-53
2023/11/09 03:37:46;;;;;;;;;27.00;22.00;;;;;3.91;100.00;99833.78;6284061;20;2834637;-51
2023/11/09 03:40:15;;;;;;;;;26.00;21.00;;;;;3.87;100.00;99840.09;6280793;20;2854545;-53
2023/11/09 03:42:44;;;;;;;;;25.00;21.67;;;;;3.70;100.00;99830.88;6281574;20;3575259;-48
2023/11/09 03:45:12;;;;;;;;;25.50;21.00;;;;;3.49;100.00;99836.88;6281458;20;2500491;-44
2023/11/09 03:47:41;;;;;;;;;19.00;15.50;;;;;3.51;100.00;99835.91;6284781;20;2809801;-44
2023/11/09 03:50:12;;;;;;;;;24.67;23.33;;;;;3.46;100.00;99834.31;6281360;20;3587927;-44
2023/11/09 03:52:41;;;;;;;;;27.00;22.67;;;;;3.57;100.00;99840.16;6278894;20;3569018;-45
2023/11/09 03:55:11;;;;;;;;;23.00;21.00;;;;;3.43;100.00;99831.75;6281620;20;3572233;-44
2023/11/09 03:57:40;;;;;;;;;25.00;20.50;;;;;3.79;100.00;99831.50;6279445;20;2498237;-44
2023/11/09 04:00:11;;;;;;;;;24.00;20.00;;;;;3.67;100.00;99838.09;6283566;20;3558593;-43
2023/11/09 04:02:42;;;;;;;;;24.50;23.00;;;;;3.67;100.00;99838.09;6307066;20;2487849;-53
2023/11/09 04:05:13;;;;;;;;;24.67;20.33;;;;;3.60;100.00;99829.44;6282404;20;3564891;-54
2023/11/09 04:07:45;;;;;;;;;27.00;24.00;;;;;3.65;100.00;99837.25;6312428;20;2498320;-52
2023/11/09 04:10:16;;;;;;;;;28.00;20.00;;;;;3.76;100.00;99831.63;6283301;20;2835722;-51
2023/11/09 04:12:44;;;;;;;;;27.00;19.50;;;;;3.90;100.00;99830.28;6282391;20;2838861;-49
2023/11/09 04:15:14;;;;;;;;;24.50;21.00;;;;;3.71;100.00;99835.31;6282226;20;2846150;-54
2023/11/09 04:17:42;;;;;;;;;25.00;22.00;;;;;3.80;100.00;99820.00;6283346;20;2848230;-54
2023/11/09 04:20:11;;;;;;;;;27.67;24.00;;;;;3.63;100.00;99818.72;6282422;20;3578546;-53
2023/11/09 04:22:39;;;;;;;;;21.00;20.00;;;;;3.50;100.00;99817.34;6277193;20;2500311;-49
2023/11/09 04:25:09;;;;;;;;;26.00;24.33;;;;;3.87;100.00;99817.09;6277396;20;3569030;-53
2023/11/09 04:27:38;;;;;;;;;29.00;23.50;;;;;3.17;100.00;99819.25;6281085;20;2845077;-55
2023/11/09 04:30:14;;;;;;;;;30.00;24.50;;;;;3.04;100.00;99824.03;6276205;20;3606685;-48
2023/11/09 04:32:43;;;;;;;;;23.00;23.00;;;;;2.50;100.00;99827.28;6312056;20;2715932;-51
2023/11/09 04:35:14;;;;;;;;;29.50;24.50;;;;;2.18;100.00;99828.97;6306845;20;2851453;-52
2023/11/09 04:37:49;;;;;;;;;63.00;49.00;;;;;2.01;100.00;99825.91;6276490;20;2498163;-48
2023/11/09 04:40:22;;;;;;;;;52.50;43.50;;;;;2.13;100.00;99831.78;6281915;20;2857573;-51
2023/11/09 04:42:53;;;;;;;;;65.00;46.33;;;;;2.23;100.00;99829.75;6282582;20;2882618;-51
2023/11/09 04:45:25;;;;;;;;;69.33;52.33;;;;;2.37;100.00;99822.31;6313775;20;2865040;-47
2023/11/09 04:47:58;;;;;;;;;54.00;43.50;;;;;2.26;100.00;99827.00;6314020;20;2850301;-51
2023/11/09 04:50:30;;;;;;;;;47.00;40.00;;;;;2.57;100.00;99828.88;6280988;20;2851347;-47
2023/11/09 04:53:07;;;;;;;;;59.67;39.67;;;;;2.62;100.00;99824.31;6281954;20;2881522;-47
2023/11/09 04:55:53;;;;;;;;;48.00;40.50;;;;;3.20;100.00;99835.94;6310742;20;2849326;-44
2023/11/09 05:07:18;;;;;;;;;40.00;32.00;;;;;2.77;100.00;99836.28;6306678;20;2870187;-48
2023/11/09 05:09:47;;;;;;;;;39.67;33.00;;;;;3.20;100.00;99838.59;6306714;20;2867297;-50
2023/11/09 05:12:18;;;;;;;;;41.33;35.00;;;;;3.33;100.00;99838.25;6308341;20;2868079;-52
2023/11/09 05:14:48;;;;;;;;;41.33;34.33;;;;;3.09;100.00;99835.38;6310729;20;2874331;-53
2023/11/09 05:17:17;;;;;;;;;39.00;34.00;;;;;3.11;100.00;99832.66;6312076;20;2862772;-52
2023/11/09 05:19:47;;;;;;;;;32.50;29.50;;;;;2.93;100.00;99831.44;6278961;20;2846106;-51
2023/11/09 05:22:17;;;;;;;;;28.50;25.00;;;;;3.11;100.00;99836.22;6276023;20;2500464;-53
2023/11/09 05:24:47;;;;;;;;;36.00;27.00;;;;;2.91;100.00;99834.13;6278593;20;2858808;-54
2023/11/09 05:27:17;;;;;;;;;35.50;27.00;;;;;2.85;100.00;99835.16;6279239;20;2869107;-51
2023/11/09 05:29:46;;;;;;;;;32.00;28.00;;;;;2.28;100.00;99834.94;6278483;20;2500258;-53
2023/11/09 05:32:15;;;;;;;;;36.00;29.00;;;;;2.01;100.00;99829.41;6276900;20;2494133;-39
2023/11/09 05:34:43;;;;;;;;;33.50;27.00;;;;;1.79;100.00;99825.53;6275763;20;2500395;-39
2023/11/09 05:37:13;;;;;;;;;40.50;31.00;;;;;1.55;100.00;99825.19;6280779;20;2869108;-39
2023/11/09 05:39:43;;;;;;;;;33.50;29.50;;;;;1.71;100.00;99829.25;6277865;20;2500323;-40
2023/11/09 05:42:11;;;;;;;;;42.50;35.50;;;;;1.93;100.00;99831.38;6276084;20;2869175;-40
2023/11/09 05:44:39;;;;;;;;;34.00;31.50;;;;;2.27;100.00;99826.13;6279273;20;2500502;-39
2023/11/09 05:47:08;;;;;;;;;34.00;29.00;;;;;2.45;100.00;99819.47;6279628;20;2500321;-49
2023/11/09 05:49:36;;;;;;;;;41.00;32.50;;;;;2.71;100.00;99826.69;6284448;20;2500278;-49
2023/11/09 05:52:05;;;;;;;;;39.00;37.00;;;;;2.83;100.00;99829.03;6283612;20;2844226;-39
2023/11/09 05:54:34;;;;;;;;;31.00;31.00;;;;;2.71;100.00;99836.44;6285798;20;2856566;-44
2023/11/09 05:57:03;;;;;;;;;42.50;37.50;;;;;2.61;100.00;99826.09;6285964;20;2852488;-44
2023/11/09 05:59:33;;;;;;;;;38.67;36.67;;;;;2.53;100.00;99833.38;6285893;20;2868200;-43
2023/11/09 06:02:04;;;;;;;;;42.33;34.33;;;;;2.55;100.00;99836.84;6310927;20;3623210;-43
2023/11/09 06:04:35;;;;;;;;;55.67;42.00;;;;;2.53;100.00;99840.47;6315989;20;3644042;-46
2023/11/09 06:07:05;;;;;;;;;55.00;42.67;;;;;2.41;100.00;99846.94;6316744;20;2877540;-45
2023/11/09 06:09:34;;;;;;;;;61.33;45.00;;;;;2.25;100.00;99848.25;6314340;20;3641953;-44
2023/11/09 06:12:08;;;;;;;;;43.33;38.33;;;;;2.67;100.00;99840.97;6316305;20;2857666;-44
2023/11/09 06:14:37;;;;;;;;;37.00;34.00;;;;;2.30;100.00;99836.63;6316420;20;2851341;-43
2023/11/09 06:17:07;;;;;;;;;48.00;37.33;;;;;1.68;100.00;99842.53;6285346;20;3629471;-42
2023/11/09 06:19:35;;;;;;;;;37.00;35.50;;;;;1.89;100.00;99840.28;6314912;20;2850396;-43
2023/11/09 06:22:06;;;;;;;;;36.50;32.50;;;;;2.06;100.00;99845.19;6280780;20;2854411;-43
2023/11/09 06:24:36;;;;;;;;;39.00;30.00;;;;;2.47;100.00;99849.44;6284486;20;2869174;-43
2023/11/09 06:27:07;;;;;;;;;40.00;33.50;;;;;2.82;100.00;99855.59;6284924;20;2869441;-43
2023/11/09 06:29:35;;;;;;;;;31.50;28.00;;;;;3.02;100.00;99844.41;6283096;20;2847397;-43
2023/11/09 06:32:05;;;;;;;;;34.50;30.00;;;;;4.20;100.00;99842.59;6284583;20;2850327;-43
2023/11/09 06:34:35;;;;;;;;;34.50;27.50;;;;;5.01;100.00;99843.31;6285310;20;2845190;-44
2023/11/09 06:37:05;;;;;;;;;34.50;32.50;;;;;5.90;97.99;99847.06;6286496;20;2853404;-43
2023/11/09 06:39:34;;;;;;;;;35.00;33.00;;;;;7.72;89.62;99845.44;6286196;20;2862904;-45
2023/11/09 06:42:03;;;;;;;;;53.00;44.00;;;;;7.08;88.12;99852.75;6313969;20;2857661;-44
2023/11/09 06:44:33;;;;;;;;;50.33;39.00;;;;;9.73;78.63;99860.09;6284761;20;2856682;-44
2023/11/09 06:47:04;;;;;;;;;57.00;44.00;;;;;10.08;73.25;99854.56;6315563;20;3625297;-45
2023/11/09 06:49:33;;;;;;;;;46.33;38.00;;;;;5.98;84.84;99854.75;6314409;20;2860842;-43
2023/11/09 06:52:05;;;;;;;;;34.00;31.00;;;;;9.60;80.36;99853.69;6317223;20;3589898;-43
2023/11/09 06:54:34;;;;;;;;;27.33;27.33;;;;;11.13;65.26;99866.28;6283797;20;3596108;-46
2023/11/09 06:57:04;;;;;;;;;32.33;30.00;;;;;10.83;67.59;99862.78;6284529;20;3596278;-43
2023/11/09 06:59:33;;;;;;;;;31.00;30.33;;;;;10.82;64.63;99866.41;6315502;20;3587868;-44
2023/11/09 07:02:02;;;;;;;;;36.00;32.00;;;;;11.28;63.06;99869.00;6285167;20;3550297;-44
2023/11/09 07:04:31;;;;;;;;;42.00;34.67;;;;;12.27;60.16;99864.53;6282138;20;3613921;-46
2023/11/09 07:07:00;;;;;;;;;46.67;38.33;;;;;12.79;58.06;99865.56;6316683;20;3601292;-43
2023/11/09 07:09:30;;;;;;;;;37.00;31.67;;;;;13.09;56.92;99868.84;6283892;20;2862964;-44
2023/11/09 07:11:59;;;;;;;;;39.00;33.00;;;;;7.45;81.09;99864.44;6314058;20;3485744;-44
2023/11/09 07:14:28;;;;;;;;;35.33;32.33;;;;;6.32;96.92;99864.94;6313739;20;2850326;-45
2023/11/09 07:16:57;;;;;;;;;37.00;33.00;;;;;6.10;100.00;99864.94;6316793;20;3607688;-45
2023/11/09 07:19:26;;;;;;;;;53.00;41.00;;;;;6.23;100.00;99865.31;6281659;20;2763866;-44
2023/11/09 07:21:57;;;;;;;;;45.67;37.00;;;;;6.58;100.00;99866.50;6281455;20;2858572;-58
2023/11/09 07:24:29;;;;;;;;;46.00;38.50;;;;;6.99;100.00;99862.06;6313228;20;2856623;-50
2023/11/09 07:27:01;;;;;;;;;29.00;27.67;;;;;6.97;100.00;99858.56;6282956;20;2851428;-48
2023/11/09 07:29:30;;;;;;;;;31.33;28.33;;;;;7.89;100.00;99859.69;6316453;20;3598257;-51
2023/11/09 07:32:00;;;;;;;;;17.33;17.33;;;;;8.02;99.81;99861.78;6279173;20;3554477;-50
2023/11/09 07:34:30;;;;;;;;;17.00;15.00;;;;;8.23;98.29;99858.06;6285611;20;3540256;-51
2023/11/09 07:37:03;;;;;;;;;22.00;18.50;;;;;8.76;96.70;99864.38;6280960;20;2500287;-50
2023/11/09 07:39:32;;;;;;;;;20.50;20.50;;;;;8.64;97.22;99852.50;6284819;20;2838563;-51
2023/11/09 07:42:04;;;;;;;;;22.50;21.00;;;;;8.61;97.34;99858.00;6281860;20;2835789;-50
2023/11/09 07:44:33;;;;;;;;;28.00;27.00;;;;;8.51;97.92;99862.09;6283482;20;2803471;-51
2023/11/09 07:47:02;;;;;;;;;23.00;20.00;;;;;8.96;97.84;99858.88;6283822;20;2725368;-52
2023/11/09 07:49:31;;;;;;;;;45.67;37.67;;;;;8.98;97.85;99851.63;6317295;20;3609596;-53
2023/11/09 07:52:01;;;;;;;;;30.67;26.67;;;;;9.46;94.53;99857.13;6278976;20;2862917;-49
2023/11/09 07:54:30;;;;;;;;;24.00;22.00;;;;;9.55;96.48;99855.75;6314903;20;2841957;-53
2023/11/09 07:57:01;;;;;;;;;20.00;18.00;;;;;9.88;92.65;99859.25;6281471;20;2829425;-49
2023/11/09 07:59:29;;;;;;;;;16.50;16.50;;;;;9.85;93.31;99851.38;6281948;20;2491944;-50
2023/11/09 08:01:57;;;;;;;;;14.50;14.50;;;;;10.11;92.50;99859.78;6281896;20;2496102;-52
2023/11/09 08:04:30;;;;;;;;;14.67;14.00;;;;;10.16;92.99;99856.81;6282591;20;3523306;-51
2023/11/09 08:06:58;;;;;;;;;17.00;17.00;;;;;10.66;90.23;99856.56;6313659;20;3566921;-47
2023/11/09 08:09:27;;;;;;;;;13.67;13.67;;;;;10.96;87.39;99859.28;6313735;20;3512764;-48
2023/11/09 08:11:56;;;;;;;;;11.33;10.33;;;;;10.91;86.82;99853.31;6312675;20;2793022;-51
2023/11/09 08:14:24;;;;;;;;;14.00;12.00;;;;;10.88;87.24;99847.28;6319095;20;2789013;-50
2023/11/09 08:16:56;;;;;;;;;13.20;10.40;;;;;10.98;84.09;99841.25;6310780;20;2791437;-50
2023/11/09 08:19:24;;;;;;;;;9.00;9.00;;;;;10.66;84.16;99844.97;6283802;20;2732703;-43
2023/11/09 08:21:53;;;;;;;;;12.33;10.67;;;;;11.02;83.09;99835.69;6281016;20;2790044;-43
2023/11/09 08:24:21;;;;;;;;;6.50;5.50;;;;;11.04;80.78;99837.31;6317282;20;2750294;-44
2023/11/09 08:26:49;;;;;;;;;9.00;8.50;;;;;11.10;79.75;99844.97;6286876;20;2759692;-46
2023/11/09 08:29:19;;;;;;;;;8.60;8.60;;;;;10.90;79.13;99843.53;6312334;20;2771146;-46
2023/11/09 08:31:47;;;;;;;;;9.00;9.00;;;;;10.82;79.42;99844.94;6284431;20;2740935;-53
2023/11/09 08:34:16;;;;;;;;;8.00;8.00;;;;;10.68;78.31;99843.94;6286938;20;2746138;-53
2023/11/09 08:36:45;;;;;;;;;19.67;15.00;;;;;10.83;77.68;99847.53;6280833;20;2817079;-50
2023/11/09 08:39:19;;;;;;;;;16.00;10.00;;;;;11.28;76.30;99836.75;6313987;20;2793104;-54
2023/11/09 08:41:48;;;;;;;;;1.25;0.00;;;;;11.74;73.27;99833.84;6303462;20;1798936;-51
2023/11/09 08:44:17;;;;;;;;;12.60;10.00;;;;;11.46;74.26;99834.75;6340938;20;2789876;-48
2023/11/09 08:46:46;;;;;;;;;12.00;12.00;;;;;11.58;73.34;99837.50;6285180;20;2796136;-44
2023/11/09 08:49:15;;;;;;;;;9.80;7.60;;;;;11.46;73.99;99835.63;6310685;20;2769058;-45
2023/11/09 08:51:44;;;;;;;;;9.00;9.00;;;;;11.78;72.53;99835.38;6283241;20;2744166;-44
2023/11/09 08:54:12;;;;;;;;;9.00;9.00;;;;;11.80;72.29;99833.47;6288195;20;2756520;-44
2023/11/09 08:56:40;;;;;;;;;7.50;7.50;;;;;11.89;72.61;99832.91;6284696;20;2741935;-43
2023/11/09 08:59:08;;;;;;;;;10.00;8.00;;;;;12.01;70.98;99826.72;6288568;20;2769050;-43
2023/11/09 09:01:36;;;;;;;;;6.50;6.50;;;;;11.93;72.32;99818.28;6286200;20;2737785;-44
2023/11/09 09:04:04;;;;;;;;;7.00;5.50;;;;;12.68;69.21;99821.34;6286592;20;2745159;-43
2023/11/09 09:06:32;;;;;;;;;2.50;2.50;;;;;12.76;69.12;99828.91;6285584;20;2738837;-44
2023/11/09 09:09:00;;;;;;;;;10.50;8.00;;;;;12.39;67.96;99826.00;6285935;20;2764894;-38
2023/11/09 09:11:30;;;;;;;;;5.00;5.00;;;;;12.25;68.54;99823.38;6286520;20;2746116;-39
2023/11/09 09:13:59;;;;;;;;;4.00;4.00;;;;;12.14;68.85;99826.78;6286882;20;2752524;-39
2023/11/09 09:16:28;;;;;;;;;4.00;3.00;;;;;12.65;67.69;99818.00;6284550;20;2753398;-43
2023/11/09 09:18:56;;;;;;;;;6.00;6.00;;;;;12.30;65.40;99823.94;6287487;20;2748214;-43
2023/11/09 09:21:24;;;;;;;;;4.00;4.00;;;;;12.80;64.25;99825.06;6286661;20;2757129;-45
2023/11/09 09:23:53;;;;;;;;;8.00;6.00;;;;;12.45;65.13;99827.44;6285868;20;2738931;-46
2023/11/09 09:26:21;;;;;;;;;6.00;5.00;;;;;12.75;63.85;99827.19;6284232;20;2739871;-44
2023/11/09 09:28:49;;;;;;;;;5.50;5.50;;;;;12.85;63.35;99817.53;6286261;20;2740975;-44
2023/11/09 09:31:18;;;;;;;;;6.50;6.50;;;;;12.89;63.71;99818.16;6284929;20;2738910;-42
2023/11/09 09:34:10;;;;;;;;;8.00;4.50;;;;;12.93;62.68;99820.53;6283467;20;2752433;-43
2023/11/09 09:36:38;;;;;;;;;4.00;4.00;;;;;12.94;61.43;99816.00;6285836;20;2754439;-42
2023/11/09 09:39:07;;;;;;;;;2.00;2.00;;;;;13.31;61.33;99821.56;6288472;20;2748199;-44
2023/11/09 09:41:49;;;;;;;;;3.50;3.50;;;;;12.91;62.76;99811.69;6284890;20;2739973;-44
2023/11/09 09:44:19;;;;;;;;;3.00;3.00;;;;;13.33;60.49;99807.00;6283482;20;2733614;-51
2023/11/09 09:46:48;;;;;;;;;1.50;1.50;;;;;13.27;61.09;99811.94;6286175;20;2734768;-53
2023/11/09 09:49:18;;;;;;;;;1.67;1.33;;;;;12.96;59.81;99814.94;6303494;20;1787228;-51
2023/11/09 09:51:49;;;;;;;;;3.00;3.00;;;;;13.36;58.95;99808.59;6316543;20;2746177;-48
2023/11/09 09:54:18;;;;;;;;;4.00;3.00;;;;;13.41;57.70;99810.97;6285468;20;2752361;-49
2023/11/09 09:56:47;;;;;;;;;2.00;2.00;;;;;13.58;57.63;99810.63;6283283;20;2752520;-53
2023/11/09 09:59:18;;;;;;;;;2.00;2.00;;;;;13.15;59.48;99813.66;6287160;20;2723220;-48
2023/11/09 10:01:49;;;;;;;;;2.00;2.00;;;;;13.36;56.92;99811.31;6280117;20;2742381;-52
2023/11/09 10:04:18;;;;;;;;;2.00;2.00;;;;;13.57;58.21;99806.22;6282981;20;2741951;-51
2023/11/09 10:06:46;;;;;;;;;1.00;1.00;;;;;13.45;58.16;99804.38;6285585;20;2737913;-51
2023/11/09 10:09:14;;;;;;;;;3.00;1.00;;;;;13.23;58.88;99795.09;6287982;20;2724291;-50
2023/11/09 10:11:43;;;;;;;;;0.00;0.00;;;;;13.79;57.88;99802.81;6284429;20;2724269;-52
2023/11/09 10:14:14;;;;;;;;;1.00;1.00;;;;;14.00;56.48;99808.47;6301003;20;1802511;-52
2023/11/09 10:16:42;;;;;;;;;2.00;2.00;;;;;13.48;56.77;99806.84;6317297;20;2726432;-50
2023/11/09 10:19:10;;;;;;;;;1.00;1.00;;;;;13.42;56.46;99799.22;6287523;20;2731587;-51
2023/11/09 10:21:41;;;;;;;;;3.00;3.00;;;;;13.77;56.71;99797.53;6283071;20;2756738;-49
2023/11/09 10:24:14;;;;;;;;;4.00;2.00;;;;;13.63;56.57;99802.19;6284449;20;2753679;-49
2023/11/09 10:26:47;;;;;;;;;1.25;1.25;;;;;13.82;56.26;99786.38;6301481;20;1804575;-49
2023/11/09 10:29:19;;;;;;;;;2.00;2.00;;;;;14.21;53.23;99779.00;6332126;20;1797728;-51
2023/11/09 10:31:48;;;;;;;;;1.00;1.00;;;;;14.31;52.82;99781.88;6328567;20;1796782;-49
2023/11/09 10:34:16;;;;;;;;;2.00;2.00;;;;;14.44;54.07;99785.38;6322528;20;2739938;-50
2023/11/09 10:36:45;;;;;;;;;3.00;3.00;;;;;14.31;54.36;99782.72;6289906;20;2734665;-50
2023/11/09 10:39:22;;;;;;;;;2.00;2.00;;;;;14.54;52.77;99777.47;6290250;20;2744052;-49
2023/11/09 10:41:54;;;;;;;;;3.00;3.00;;;;;14.33;52.58;99779.94;6286412;20;2769020;-50
2023/11/09 10:44:28;;;;;;;;;2.00;2.00;;;;;14.17;53.93;99775.69;6288596;20;2733657;-48
2023/11/09 10:47:00;;;;;;;;;2.00;2.00;;;;;14.14;53.01;99770.50;6288397;20;2752358;-47
2023/11/09 10:49:37;;;;;;;;;3.50;2.00;;;;;14.42;51.76;99773.81;6289173;20;2741969;-50
2023/11/09 10:52:08;;;;;;;;;1.00;1.00;;;;;14.34;51.58;99773.53;6287872;20;2739881;-52
2023/11/09 10:54:41;;;;;;;;;2.00;2.00;;;;;14.70;51.20;99764.50;6285042;20;2754569;-48
2023/11/09 10:57:09;;;;;;;;;2.00;2.00;;;;;14.36;51.85;99771.59;6288494;20;2744134;-55
2023/11/09 10:59:40;;;;;;;;;2.00;2.00;;;;;14.40;51.12;99759.56;6285492;20;2733620;-49
2023/11/09 11:02:27;;;;;;;;;2.00;1.50;;;;;14.59;50.95;99765.31;6286683;20;2737793;-54
2023/11/09 11:05:01;;;;;;;;;1.00;1.00;;;;;14.35;49.33;99750.94;6299183;20;2722274;-48
2023/11/09 11:07:37;;;;;;;;;0.00;0.00;;;;;14.26;48.25;99747.09;6304630;20;1805622;-51
2023/11/09 11:10:16;;;;;;;;;4.00;2.00;;;;;14.40;48.68;99754.16;6317270;20;2753399;-52
2023/11/09 11:12:44;;;;;;;;;1.50;1.50;;;;;14.64;47.91;99755.03;6287072;20;2721181;-52
2023/11/09 11:15:18;;;;;;;;;2.00;2.00;;;;;14.59;47.68;99743.72;6290618;20;2741987;-49
2023/11/09 11:19:06;;;;;;;;;1.00;1.00;;;;;14.56;47.92;99743.94;6286841;20;2730654;-52
2023/11/09 11:21:59;;;;;;;;;1.50;1.00;;;;;14.21;48.13;99744.75;6287558;20;2732618;-49
2023/11/09 11:25:36;;;;;;;;;3.00;2.00;;;;;14.43;47.04;99737.72;6284334;20;2729517;-50
2023/11/09 11:28:07;;;;;;;;;1.00;1.00;;;;;14.23;48.79;99744.66;6287678;20;2733642;-50
2023/11/09 11:30:36;;;;;;;;;1.50;1.50;;;;;14.54;48.98;99736.94;6285624;20;2739847;-51